KAXS/AXS METAR and TAF weather

Enter ICAO airport designator
Station Type Date Time Source
KAXS METAR 2022/06/27 07:55 UTC NOAA

KAXS 270755Z AUTO 03007KT 10SM CLR 21/10 A3030 RMK AO2 T02050095


Station Type Date Time Source
KAXS Decoded METAR 2022/06/27 07:55 UTC NOAA

Altus, Altus/Quartz Mountain Regional Airport, OK, United States (KAXS) 34-41-55N 099-20-17W
Jun 27, 2022 - 03:55 AM EDT / 2022.06.27 0755 UTC
Wind: from the NNE (030 degrees) at 8 MPH (7 KT):0
Visibility: 10 mile(s):0
Sky conditions: clear
Temperature: 68.9 F (20.5 C)
Dew Point: 49.1 F (9.5 C)
Relative Humidity: 49%
Pressure (altimeter): 30.3 in. Hg (1026 hPa)
ob: KAXS 270755Z AUTO 03007KT 10SM CLR 21/10 A3030 RMK AO2 T02050095
cycle: 8

Station Type Date Time Source
KAXS TAF UTC NOAA

Error!

Example: see airport list